createdAt,value
2023-04-02T00:03:59.869Z,54.14
2023-04-02T00:09:13.890Z,55.13
2023-04-02T00:14:23.022Z,51.81
2023-04-02T00:19:42.205Z,55.13
2023-04-02T00:24:44.005Z,53.16
2023-04-02T00:29:50.751Z,54.41
2023-04-02T00:34:52.806Z,52.51
2023-04-02T00:40:15.444Z,53.89
2023-04-02T00:45:26.016Z,54.72
2023-04-02T00:50:35.903Z,51.89
2023-04-02T00:55:41.723Z,52.29
2023-04-02T01:00:50.308Z,53.21
2023-04-02T01:06:01.686Z,50.57
2023-04-02T01:11:09.382Z,50.30
2023-04-02T01:16:39.489Z,52.77
2023-04-02T01:21:57.289Z,51.57
2023-04-02T01:27:05.456Z,51.42
2023-04-02T01:32:11.548Z,52.57
2023-04-02T01:37:34.924Z,52.70
2023-04-02T01:42:39.374Z,53.27
2023-04-02T01:47:42.950Z,52.83
2023-04-02T01:52:46.975Z,51.99
2023-04-02T01:57:52.127Z,51.53
2023-04-02T02:02:54.264Z,47.66
2023-04-02T02:07:58.443Z,52.63
2023-04-02T02:13:01.376Z,49.05
2023-04-02T02:18:06.620Z,49.42
2023-04-02T02:23:11.095Z,50.18
2023-04-02T02:28:12.771Z,51.00
2023-04-02T02:33:41.894Z,47.40
2023-04-02T02:39:02.380Z,53.51
2023-04-02T02:44:16.436Z,50.57
2023-04-02T02:49:26.169Z,50.02
2023-04-02T02:54:30.679Z,48.76
2023-04-02T02:59:32.776Z,50.79
2023-04-02T03:04:35.915Z,52.61
2023-04-02T03:09:57.636Z,50.47
2023-04-02T03:15:20.714Z,49.04
2023-04-02T03:20:55.708Z,49.16
2023-04-02T03:26:24.932Z,50.86
2023-04-02T03:31:33.851Z,53.35
2023-04-02T03:36:46.687Z,49.46
2023-04-02T03:41:50.800Z,51.38
2023-04-02T03:47:01.553Z,53.49
2023-04-02T03:52:11.931Z,52.99
2023-04-02T03:57:31.856Z,53.61
2023-04-02T04:02:38.909Z,53.91
2023-04-02T04:07:43.647Z,52.81
2023-04-02T04:12:50.681Z,57.54
2023-04-02T04:18:35.107Z,55.08
2023-04-02T04:23:41.162Z,51.44
2023-04-02T04:29:05.711Z,53.06
2023-04-02T04:34:23.159Z,51.86
2023-04-02T04:39:47.385Z,48.85
2023-04-02T04:44:59.891Z,52.26
2023-04-02T04:50:05.672Z,50.24
2023-04-02T04:55:31.161Z,50.32
2023-04-02T05:00:59.845Z,51.92
2023-04-02T05:06:09.498Z,52.24
2023-04-02T05:11:19.747Z,52.84
2023-04-02T05:16:31.426Z,51.36
2023-04-02T05:22:16.372Z,53.25
2023-04-02T05:27:27.534Z,52.71
2023-04-02T05:32:34.706Z,53.14
2023-04-02T05:37:39.850Z,50.06
2023-04-02T05:42:47.469Z,52.14
2023-04-02T05:47:52.355Z,51.93
2023-04-02T05:53:06.629Z,53.66
2023-04-02T05:58:39.182Z,54.67
2023-04-02T06:03:46.878Z,52.83
2023-04-02T06:09:00.113Z,53.79
2023-04-02T06:14:03.605Z,50.58
2023-04-02T06:19:17.465Z,52.65
2023-04-02T06:24:25.465Z,53.18
2023-04-02T06:29:31.809Z,53.17
2023-04-02T06:34:36.686Z,49.95
2023-04-02T06:39:38.362Z,51.67
2023-04-02T06:44:40.540Z,48.80
2023-04-02T06:50:04.052Z,48.52
2023-04-02T06:55:20.790Z,51.89
2023-04-02T07:00:44.416Z,48.73
2023-04-02T07:05:46.200Z,50.70
2023-04-02T07:10:47.887Z,53.82
2023-04-02T07:15:52.524Z,49.60
2023-04-02T07:20:54.718Z,51.87
2023-04-02T07:25:57.737Z,51.63
2023-04-02T07:30:59.596Z,51.59
2023-04-02T07:36:01.625Z,49.75
2023-04-02T07:41:07.109Z,49.90
2023-04-02T07:46:09.855Z,47.93
2023-04-02T07:51:20.327Z,48.36
2023-04-02T07:56:23.850Z,50.41
2023-04-02T08:01:27.353Z,52.60
2023-04-02T08:06:29.330Z,51.17
2023-04-02T08:11:31.795Z,53.01
2023-04-02T08:16:47.665Z,49.83
2023-04-02T08:21:51.702Z,50.04
2023-04-02T08:26:53.691Z,48.76
2023-04-02T08:31:55.293Z,51.24
2023-04-02T08:36:58.738Z,49.01
2023-04-02T08:42:18.979Z,51.34
2023-04-02T08:47:26.014Z,47.93
2023-04-02T08:52:32.765Z,49.01
2023-04-02T08:57:47.536Z,47.89
2023-04-02T09:02:57.652Z,49.68
2023-04-02T09:08:02.994Z,50.96
2023-04-02T09:13:16.870Z,47.46
2023-04-02T09:18:19.627Z,49.60
2023-04-02T09:23:24.387Z,47.97
2023-04-02T09:28:27.205Z,48.18
2023-04-02T09:33:47.088Z,47.81
2023-04-02T09:39:07.148Z,47.57
2023-04-02T09:44:23.810Z,46.86
2023-04-02T09:49:28.710Z,46.67
2023-04-02T09:54:30.382Z,47.74
2023-04-02T09:59:32.049Z,47.13
2023-04-02T10:04:49.719Z,46.40
2023-04-02T10:10:17.885Z,45.76
2023-04-02T10:15:26.344Z,44.86
2023-04-02T10:20:32.112Z,46.15
2023-04-02T10:25:42.427Z,46.47
2023-04-02T10:31:00.032Z,44.74
2023-04-02T10:36:23.242Z,43.07
2023-04-02T10:41:37.104Z,43.02
2023-04-02T10:47:00.173Z,43.42
2023-04-02T10:52:21.271Z,45.84
2023-04-02T10:57:39.518Z,43.73
2023-04-02T11:06:44.090Z,53.00
2023-04-02T11:11:51.379Z,52.96
2023-04-02T11:16:55.358Z,54.95
2023-04-02T11:22:16.203Z,53.14
2023-04-02T11:27:17.706Z,53.14
2023-04-02T11:32:22.343Z,53.89
2023-04-02T11:37:36.023Z,54.29
2023-04-02T11:42:42.788Z,53.00
2023-04-02T11:48:13.306Z,52.26
2023-04-02T11:53:15.021Z,54.16
2023-04-02T11:58:46.111Z,50.73
2023-04-02T12:04:21.477Z,53.06
2023-04-02T12:09:27.226Z,52.84
2023-04-02T12:14:59.526Z,50.97
2023-04-02T12:20:20.605Z,47.60
2023-04-02T12:25:40.350Z,49.95
2023-04-02T12:30:42.126Z,49.06
2023-04-02T12:35:45.317Z,47.95
2023-04-02T12:40:57.668Z,46.28
2023-04-02T12:46:08.168Z,53.35
2023-04-02T12:51:11.181Z,55.04
2023-04-02T12:56:19.735Z,56.74
2023-04-02T13:01:23.924Z,55.90
2023-04-02T13:06:27.088Z,57.93
2023-04-02T13:11:40.403Z,59.54
2023-04-02T13:16:42.241Z,57.07
2023-04-02T13:21:46.610Z,59.04
2023-04-02T13:26:49.828Z,58.25
2023-04-02T13:31:53.544Z,59.02
2023-04-02T13:36:55.493Z,57.36
2023-04-02T13:41:58.511Z,57.06
2023-04-02T13:47:00.719Z,58.53
2023-04-02T13:52:05.012Z,58.28
2023-04-02T13:57:07.482Z,58.03
2023-04-02T14:02:16.094Z,57.56
2023-04-02T14:07:47.749Z,57.27
2023-04-02T14:13:08.271Z,57.38
2023-04-02T14:18:48.153Z,55.53
2023-04-02T14:23:49.778Z,58.00
2023-04-02T14:28:51.311Z,56.23
2023-04-02T14:34:19.251Z,57.49
2023-04-02T14:39:49.445Z,57.01
2023-04-02T14:45:02.350Z,58.27
2023-04-02T14:50:13.553Z,58.05
2023-04-02T14:55:26.749Z,59.30
2023-04-02T15:00:41.993Z,58.20
2023-04-02T15:05:54.688Z,57.60
2023-04-02T15:11:02.887Z,58.14
2023-04-02T15:16:10.213Z,57.05
2023-04-02T15:21:19.175Z,56.44
2023-04-02T15:26:33.037Z,56.06
2023-04-02T15:31:35.917Z,59.02
2023-04-02T15:37:04.132Z,57.72
2023-04-02T15:42:05.996Z,59.37
2023-04-02T15:47:28.316Z,56.56
2023-04-02T15:52:47.876Z,59.26
2023-04-02T15:58:23.498Z,58.59
2023-04-02T16:03:33.769Z,59.58
2023-04-02T16:08:57.204Z,58.81
2023-04-02T16:14:22.681Z,60.51
2023-04-02T16:19:40.003Z,58.42
2023-04-02T16:24:43.054Z,57.30
2023-04-02T16:30:29.058Z,57.73
2023-04-02T16:35:51.159Z,57.16
2023-04-02T16:41:14.591Z,58.47
2023-04-02T16:46:38.181Z,56.92
2023-04-02T16:52:01.164Z,57.68
2023-04-02T16:57:36.057Z,57.68
2023-04-02T17:03:02.349Z,58.55
2023-04-02T17:08:37.205Z,54.48
2023-04-02T17:13:55.070Z,56.66
2023-04-02T17:18:59.888Z,56.91
2023-04-02T17:24:14.247Z,57.75
2023-04-02T17:29:38.161Z,57.25
2023-04-02T17:34:39.757Z,56.25
2023-04-02T17:39:59.962Z,57.33
2023-04-02T17:45:10.508Z,57.68
2023-04-02T17:50:15.291Z,56.41
2023-04-02T17:55:40.640Z,57.37
2023-04-02T18:00:45.610Z,57.47
2023-04-02T18:05:59.947Z,57.02
2023-04-02T18:11:16.904Z,56.77
2023-04-02T18:16:26.059Z,55.30
2023-04-02T18:21:33.085Z,56.45
2023-04-02T18:27:11.461Z,54.55
2023-04-02T18:32:29.198Z,56.93
2023-04-02T18:38:15.095Z,56.67
2023-04-02T18:43:37.835Z,57.05
2023-04-02T18:49:01.160Z,57.33
2023-04-02T18:54:08.605Z,55.28
2023-04-02T18:59:19.323Z,57.33
2023-04-02T19:04:29.099Z,54.40
2023-04-02T19:09:41.162Z,57.33
2023-04-02T19:14:42.848Z,58.84
2023-04-02T19:20:11.011Z,55.58
2023-04-02T19:25:56.279Z,56.27
2023-04-02T19:31:36.903Z,55.40
2023-04-02T19:36:47.351Z,54.51
2023-04-02T19:42:00.992Z,54.37
2023-04-02T19:47:02.761Z,54.18
2023-04-02T19:52:04.727Z,53.79
2023-04-02T19:57:06.454Z,53.28
2023-04-02T20:02:10.469Z,52.30
2023-04-02T20:07:12.075Z,50.77
2023-04-02T20:12:13.721Z,49.58
2023-04-02T20:17:15.535Z,49.23
2023-04-02T20:22:19.127Z,49.74
2023-04-02T20:27:20.875Z,48.73
2023-04-02T20:32:22.724Z,48.36
2023-04-02T20:37:24.602Z,46.75
2023-04-02T20:42:26.447Z,46.42
2023-04-02T20:47:29.105Z,46.01
2023-04-02T20:52:33.213Z,47.17
2023-04-02T20:57:35.115Z,47.55
2023-04-02T21:02:36.803Z,46.75
2023-04-02T21:07:38.514Z,46.54
2023-04-02T21:12:40.145Z,46.18
2023-04-02T21:17:41.807Z,46.53
2023-04-02T21:22:43.628Z,45.50
2023-04-02T21:27:45.328Z,44.97
2023-04-02T21:32:47.000Z,45.03
2023-04-02T21:37:48.664Z,45.10
2023-04-02T21:42:50.484Z,45.19
2023-04-02T21:47:52.072Z,44.70
2023-04-02T21:52:53.845Z,45.71
2023-04-02T21:57:55.509Z,44.11
2023-04-02T22:02:57.166Z,44.86
2023-04-02T22:07:58.766Z,43.78
2023-04-02T22:13:00.308Z,44.16
2023-04-02T22:18:02.000Z,43.31
2023-04-02T22:23:03.647Z,44.85
2023-04-02T22:28:05.647Z,42.88
2023-04-02T22:33:07.284Z,42.11
2023-04-02T22:38:09.232Z,42.54
2023-04-02T22:43:10.799Z,42.87
2023-04-02T22:48:12.433Z,42.91
2023-04-02T22:53:15.250Z,42.40
2023-04-02T22:58:16.866Z,43.21
2023-04-02T23:03:18.912Z,43.92
2023-04-02T23:08:20.790Z,42.73
2023-04-02T23:13:22.340Z,43.65
2023-04-02T23:18:25.063Z,43.64
2023-04-02T23:23:27.346Z,43.92
2023-04-02T23:28:28.937Z,41.21
2023-04-02T23:33:30.943Z,43.39
2023-04-02T23:38:32.522Z,41.97
2023-04-02T23:43:34.200Z,42.27
2023-04-02T23:48:35.817Z,41.69
2023-04-02T23:53:37.576Z,41.76
2023-04-02T23:58:39.139Z,41.56
